Date,TemperatureHighF,TemperatureAvgF,TemperatureLowF,DewpointHighF,DewpointAvgF,DewpointLowF,HumidityHigh,HumidityAvg,HumidityLow,PressureMaxIn,PressureMinIn,WindSpeedMaxMPH,WindSpeedAvgMPH,GustSpeedMaxMPH,PrecipitationSumIn
2012-1-1,62.2,54.9,49.6,47.5,40.2,34.3,83,58,47,30.18,30.12,4,1,8,0.00
2012-1-2,59.7,54.8,51.3,50.9,48.9,46.9,90,81,66,30.30,30.18,3,0,8,0.00
2012-1-3,58.1,54.1,51.4,52.0,47.5,42.1,96,80,56,30.36,30.30,3,0,6,0.00
2012-1-4,63.3,55.7,49.8,48.0,42.8,36.3,85,64,37,30.41,30.30,4,1,8,0.00
2012-1-5,62.4,53.9,49.5,51.6,46.5,42.4,86,77,55,30.30,30.18,5,1,9,0.00
2012-1-6,57.9,51.7,46.6,49.5,45.7,42.4,93,81,59,30.18,30.12,4,0,10,0.00
2012-1-7,65.5,55.7,46.9,45.0,32.5,15.8,87,49,15,30.24,30.12,6,2,13,0.00
2012-1-8,64.9,56.6,49.3,32.7,24.9,20.7,49,30,23,30.24,30.18,4,1,11,0.00
2012-1-9,60.6,53.8,47.3,38.5,34.2,27.9,62,48,37,30.24,30.18,3,1,7,0.00
2012-1-10,59.9,53.0,46.9,41.7,37.4,32.4,71,57,36,30.18,30.06,3,0,6,0.00
2012-1-11,61.0,52.9,45.9,42.8,36.3,32.0,74,55,35,30.12,30.00,2,0,8,0.00
2012-1-12,62.1,54.8,46.8,40.3,30.2,25.3,70,41,26,30.12,30.06,4,1,8,0.00
2012-1-13,62.6,53.7,46.4,40.8,33.2,29.1,66,47,31,30.24,30.12,3,0,6,0.00
2012-1-15,52.7,49.1,44.8,43.0,31.5,22.5,72,51,41,30.18,30.06,5,3,13,0.00
2012-1-16,51.8,45.7,41.7,30.4,23.7,19.2,57,42,30,30.30,30.18,3,1,8,0.00
2012-1-17,52.7,45.8,40.3,37.4,31.6,27.0,74,58,43,30.41,30.36,3,1,7,0.00
2012-1-18,54.9,47.8,42.1,41.9,37.0,32.7,82,67,47,30.41,30.24,1,0,6,0.00
2012-1-19,51.1,49.1,46.4,49.1,43.8,39.2,95,82,64,30.24,30.06,1,0,8,0.28
2012-1-20,59.2,54.9,50.5,58.6,54.2,49.1,98,97,95,30.06,29.71,6,1,15,1.51
2012-1-21,55.6,52.0,48.6,55.0,45.0,38.1,98,78,57,30.12,29.71,5,3,16,0.12
2012-1-22,54.9,50.6,47.1,53.2,45.8,39.2,95,84,72,30.18,29.76,2,1,8,0.32
2012-1-23,56.3,54.0,51.4,55.8,53.3,50.4,98,98,95,29.76,29.65,6,3,15,0.48
2012-1-25,62.2,58.2,53.4,55.6,51.0,45.9,94,78,56,30.41,30.36,3,1,8,0.00
2012-1-26,59.0,56.1,52.5,56.7,54.4,51.6,98,94,84,30.36,30.24,5,1,12,0.00
2012-1-27,56.1,52.8,50.0,52.7,44.4,34.7,97,76,45,30.30,30.24,1,0,6,0.00
2012-1-28,62.8,53.1,45.1,37.9,31.9,23.7,74,48,24,30.36,30.24,3,1,9,0.00
2012-1-29,64.0,55.1,48.2,46.0,41.1,35.8,73,60,41,30.30,30.12,2,1,7,0.00
2012-1-30,59.4,54.1,51.1,50.2,47.1,41.9,91,78,61,30.12,30.00,3,0,8,0.00
2012-1-31,58.5,52.4,48.7,49.5,45.7,41.7,93,78,60,30.18,30.06,4,1,10,0.00
2012-2-1,59.4,53.7,48.7,53.4,47.5,42.3,95,80,59,30.30,30.18,4,1,10,0.00
2012-2-2,64.2,54.9,48.2,49.1,43.1,30.2,90,69,28,30.24,29.94,4,1,9,0.00
2012-2-3,62.6,54.2,48.0,48.6,42.8,28.4,94,68,34,30.06,30.00,4,2,10,0.00
2012-2-4,63.7,54.9,47.5,45.0,37.4,30.2,79,55,34,30.12,30.06,3,1,8,0.00
2012-2-5,64.9,55.8,48.2,41.4,34.4,29.8,67,46,29,30.12,30.00,2,0,6,0.00
2012-2-6,58.6,52.9,51.1,46.2,37.8,33.6,74,57,46,30.00,29.76,2,0,5,0.08
2012-2-7,59.0,55.7,53.4,54.9,48.5,44.2,89,77,59,30.12,29.76,3,1,11,0.16
2012-2-8,64.0,56.2,50.4,53.8,49.1,45.5,94,78,53,30.24,30.12,4,1,8,0.00
2012-2-9,66.0,57.7,51.1,50.5,46.7,42.8,89,69,46,30.30,30.12,4,1,10,0.00
2012-2-10,61.7,55.5,50.5,58.3,49.2,40.8,95,80,65,30.18,30.06,4,1,10,0.04
2012-2-11,57.4,53.4,50.7,52.0,49.2,46.0,96,86,71,30.06,30.00,5,2,11,0.00
2012-2-12,58.3,52.3,48.6,49.1,45.4,42.3,89,78,57,30.06,29.94,6,1,12,0.04
2012-2-13,53.4,49.9,47.5,50.4,44.3,39.0,96,81,61,30.00,29.88,4,2,17,0.20
2012-2-14,59.5,50.2,45.1,48.2,42.4,38.3,89,76,47,30.12,30.00,4,2,13,0.00
2012-2-15,58.1,50.7,43.7,50.0,30.3,22.1,95,49,26,30.18,30.06,6,3,13,0.08
2012-2-16,65.3,53.6,48.4,46.2,32.0,23.2,82,47,24,30.24,30.18,4,2,10,0.00
2012-2-17,63.1,53.9,48.9,51.4,48.7,44.4,94,83,56,30.24,30.18,5,2,13,0.00
2012-2-18,60.6,52.8,47.7,51.4,41.9,34.2,97,69,44,30.18,30.12,6,2,17,0.00
2012-2-19,57.0,49.5,45.1,41.2,35.7,28.6,73,60,36,30.18,30.06,4,1,10,0.00
2012-2-20,58.5,52.8,48.6,48.9,45.1,40.6,91,76,58,30.24,30.06,3,1,9,0.00
2012-2-21,65.1,55.0,50.0,52.2,48.6,45.3,94,80,50,30.30,30.24,3,0,8,0.00
2012-2-22,71.1,57.6,51.1,54.0,47.3,41.2,91,71,35,30.30,30.12,6,2,12,0.00
2012-2-23,70.9,58.9,50.2,47.8,39.3,25.0,85,53,23,30.12,29.94,5,2,11,0.00
2012-2-24,70.9,58.5,52.0,45.3,34.0,23.9,75,43,22,30.18,30.00,8,2,15,0.00
2012-2-25,60.6,52.6,48.6,43.7,31.8,25.9,74,46,30,30.36,30.18,6,3,13,0.00
2012-2-26,57.2,48.8,44.1,36.9,31.4,25.9,67,52,33,30.18,29.82,6,2,14,0.00
2012-2-27,55.8,47.9,43.0,37.6,32.7,27.9,78,57,39,29.94,29.82,5,2,13,0.00
2012-2-28,56.1,50.1,45.0,44.6,33.3,27.5,81,54,35,30.24,29.94,4,2,12,0.00
2012-2-29,56.1,51.6,48.9,51.4,44.6,38.3,98,78,54,30.24,30.00,6,3,15,0.36
2012-3-1,54.9,50.5,47.3,52.5,44.1,37.6,97,79,65,30.24,30.18,5,2,13,0.16
2012-3-2,63.7,52.2,43.7,39.7,32.7,23.2,77,51,25,30.36,30.24,4,1,11,0.00
2012-3-3,68.7,56.3,46.9,43.3,36.0,30.4,76,49,26,30.36,30.24,4,1,10,0.00
2012-3-4,70.7,58.2,50.0,45.3,40.2,36.5,79,53,32,30.24,30.06,4,1,9,0.00
2012-3-5,57.7,50.6,46.4,47.8,45.4,42.6,95,83,57,30.12,30.00,9,3,17,0.00
2012-3-6,55.4,50.5,46.0,50.4,32.9,22.5,98,54,36,30.06,29.94,6,4,14,0.00
2012-3-7,62.6,51.9,46.2,34.7,23.9,16.5,59,35,18,30.18,30.06,5,3,12,0.00
2012-3-8,68.5,54.9,45.1,44.4,35.2,22.6,76,52,20,30.30,30.18,4,1,9,0.00
2012-3-9,71.2,54.8,47.3,45.0,39.5,29.5,84,60,26,30.36,30.18,5,2,12,0.00
2012-3-10,59.0,52.0,48.2,50.5,44.4,41.2,86,76,57,30.18,30.00,5,2,12,0.00
2012-3-11,59.7,53.5,49.8,49.1,43.4,37.6,82,69,44,30.06,30.00,4,2,11,0.00
2012-3-12,55.9,55.8,55.6,45.9,42.6,40.1,69,61,56,29.94,29.94,4,3,10,0.00
2012-3-13,56.8,55.3,53.8,54.3,52.0,46.8,95,89,71,30.00,29.88,5,3,11,0.36
2012-3-14,59.2,57.2,55.8,58.6,56.5,54.5,98,97,95,30.12,29.94,3,1,9,1.16
2012-3-15,60.6,57.7,55.9,59.5,56.5,54.0,98,96,88,30.12,30.06,3,1,8,0.16
2012-3-16,59.0,56.0,50.0,58.5,54.8,48.9,98,96,85,30.06,29.71,4,2,11,1.12
2012-3-17,53.2,49.1,46.4,48.7,41.8,35.1,95,77,51,29.76,29.53,6,2,15,0.00
2012-3-18,54.0,48.6,45.1,39.4,32.5,27.0,78,55,37,29.94,29.65,6,4,15,0.00
2012-3-19,59.2,50.2,43.7,31.6,28.3,24.1,55,43,27,30.12,29.94,3,1,9,0.00
2012-3-20,54.3,51.3,50.7,48.4,30.4,27.5,81,45,40,30.18,30.06,1,0,4,0.00
2012-3-21,69.3,57.3,50.9,52.9,49.0,45.9,92,76,44,30.18,30.00,4,1,11,0.00
2012-3-22,59.2,53.6,47.8,53.2,42.4,31.3,94,68,37,30.00,29.94,6,2,13,0.00
2012-3-23,65.3,53.0,45.1,45.3,35.1,27.3,76,53,29,30.06,29.88,5,1,12,0.00
2012-3-24,53.6,48.6,45.5,47.5,42.5,26.6,97,83,36,29.88,29.82,5,1,10,1.08
2012-3-25,57.4,50.4,45.0,49.8,43.6,37.9,98,79,52,29.88,29.76,4,1,11,0.28
2012-3-26,61.7,53.0,45.3,43.5,37.9,32.0,84,59,34,30.06,29.88,4,2,10,0.00
2012-3-27,59.4,55.2,52.7,55.4,46.4,36.9,98,74,52,30.00,29.88,4,2,16,0.56
2012-3-28,64.8,57.8,53.2,55.2,52.0,47.3,97,83,53,30.12,29.94,5,2,10,0.00
2012-3-29,65.1,56.4,52.2,53.4,50.2,44.8,92,81,51,30.12,30.06,4,1,11,0.00
2012-3-30,65.8,59.8,55.8,54.1,52.2,48.7,92,77,56,30.12,29.88,4,2,10,0.00
2012-3-31,60.6,56.2,49.6,53.2,46.9,38.8,98,72,48,30.00,29.71,6,4,15,0.59
2012-4-1,59.9,52.9,47.3,46.4,36.6,30.6,86,55,37,30.30,30.00,6,3,16,0.00
2012-4-2,66.9,54.8,47.8,46.6,40.2,30.0,81,60,26,30.24,30.06,6,2,14,0.00
2012-4-3,65.5,55.6,49.8,53.4,45.7,39.0,93,72,38,30.12,30.00,5,2,11,0.00
2012-4-4,60.3,52.1,47.5,43.3,36.3,30.0,80,57,35,30.18,30.12,6,3,15,0.00
2012-4-5,58.8,50.3,44.2,35.4,31.3,27.0,61,49,36,30.18,30.12,6,2,15,0.00
2012-4-6,63.5,51.8,44.1,37.2,33.4,28.0,70,51,26,30.30,30.18,4,1,10,0.00
2012-4-7,71.1,55.0,46.2,42.3,34.3,28.0,72,48,23,30.18,30.00,4,1,11,0.00
2012-4-8,68.9,54.6,46.6,43.9,39.1,29.8,74,58,25,30.06,30.00,5,1,10,0.00
2012-4-9,61.9,53.5,50.0,48.6,43.1,38.3,86,69,42,30.00,29.82,4,1,10,0.00
2012-4-10,57.2,55.4,53.2,55.0,50.2,38.5,96,84,54,29.88,29.82,3,0,9,0.60
2012-4-11,62.6,56.6,52.3,52.5,47.4,40.1,98,74,46,29.94,29.82,5,2,13,0.12
2012-4-12,64.8,55.2,49.1,52.3,44.3,32.5,98,71,33,30.06,29.82,5,2,11,1.23
2012-4-13,59.4,53.0,48.4,50.2,42.2,36.9,98,69,46,29.88,29.71,6,3,14,0.08
2012-4-14,65.3,54.7,47.7,48.4,40.2,32.9,86,60,36,30.12,29.88,5,2,12,0.00
2012-4-15,64.0,55.4,51.8,48.9,47.1,43.7,88,75,49,30.24,30.12,6,1,14,0.00
2012-4-16,64.4,55.9,50.9,50.9,46.6,40.8,89,72,45,30.24,30.18,6,1,13,0.00
2012-4-17,63.3,56.8,53.8,54.1,50.5,46.8,95,80,57,30.18,30.06,5,1,15,0.00
2012-4-18,66.6,57.7,52.0,54.1,47.6,40.8,91,71,44,30.18,30.12,6,2,14,0.00
2012-4-19,69.6,60.9,55.8,55.8,53.4,50.2,96,78,51,30.18,30.06,6,2,13,0.00
2012-4-20,79.9,65.5,56.7,58.3,49.8,42.3,89,61,33,30.06,29.94,4,1,11,0.00
2012-4-21,83.3,67.3,57.6,50.5,46.6,43.3,71,50,29,30.00,29.82,4,1,10,0.00
2012-4-22,65.7,58.5,53.8,53.6,51.1,48.9,92,77,56,29.94,29.88,5,2,20,0.00
2012-4-23,69.8,60.9,55.8,53.4,49.4,45.0,91,68,41,30.00,29.88,4,2,13,0.00
2012-4-24,71.6,62.9,59.5,52.5,49.9,45.7,75,64,42,30.06,29.94,4,1,10,0.00
2012-4-25,72.0,62.8,58.3,58.5,52.4,47.3,95,71,42,30.00,29.76,4,1,11,0.16
2012-4-26,63.5,57.8,52.7,57.6,47.4,37.8,98,71,41,30.18,29.76,5,2,15,0.08
2012-4-27,69.4,57.8,50.0,46.0,40.7,33.4,74,55,34,30.24,30.12,5,1,10,0.00
2012-4-28,70.7,60.2,52.9,48.9,45.5,41.7,77,60,38,30.12,29.88,6,2,11,0.00
2012-4-29,75.0,61.8,53.8,51.8,47.9,44.4,83,63,35,29.94,29.88,5,1,10,0.00
2012-4-30,71.2,58.2,52.3,51.6,48.2,43.0,89,71,37,30.00,29.88,9,3,17,0.00
2012-5-1,65.1,55.8,50.2,50.2,43.5,38.1,91,66,37,29.94,29.88,6,2,14,0.00
2012-5-2,61.7,53.8,48.6,44.1,41.4,37.2,82,64,40,30.00,29.88,8,3,17,0.00
2012-5-3,67.3,58.1,52.0,55.2,49.6,43.5,94,74,49,30.12,29.94,5,2,11,0.00
2012-5-4,65.7,57.3,51.1,54.3,42.7,37.2,94,61,36,30.18,30.06,5,2,13,0.00
2012-5-5,73.4,59.7,50.2,44.6,40.2,30.9,75,52,23,30.18,30.06,6,2,14,0.00
2012-5-6,80.4,64.3,52.2,49.6,40.1,30.4,71,46,17,30.06,30.00,5,2,11,0.00
2012-5-7,84.4,65.3,53.4,52.0,44.2,36.0,76,52,19,30.00,29.94,7,2,13,0.00
2012-5-8,73.6,61.0,52.0,51.1,45.9,41.4,85,60,32,29.94,29.88,3,1,8,0.00
2012-5-9,69.6,58.4,52.3,48.6,44.9,41.7,82,63,37,29.94,29.88,4,2,13,0.00
2012-5-10,78.3,60.9,50.2,48.9,42.6,33.3,83,56,24,29.94,29.82,6,2,12,0.00
2012-5-11,73.4,61.6,52.2,50.2,44.8,41.2,89,58,32,30.00,29.82,6,2,11,0.00
2012-5-12,69.6,57.3,50.2,51.1,48.2,41.5,97,74,37,30.06,29.94,6,3,12,0.00
2012-5-13,66.2,57.8,52.3,51.3,46.8,42.3,94,69,44,30.06,30.00,5,3,13,0.00
2012-5-14,57.6,56.3,55.6,50.2,49.0,47.5,80,77,69,30.06,30.06,2,0,5,0.00
2012-5-17,54.0,52.9,52.0,45.5,45.2,45.0,77,75,73,29.88,29.88,4,2,10,0.00
2012-5-18,72.9,57.8,50.0,48.0,42.9,38.5,81,60,32,30.00,29.88,7,2,15,0.00
2012-5-19,74.1,59.4,50.4,48.9,42.0,38.3,82,56,29,30.00,29.94,4,1,11,0.00
2012-5-20,77.4,60.5,53.2,51.4,44.5,39.0,90,58,26,30.00,29.88,8,2,15,0.00
2012-5-21,64.6,57.1,52.5,56.8,52.2,49.8,97,85,59,30.12,30.00,7,4,17,0.00
2012-5-22,65.3,59.1,53.8,55.9,49.8,41.5,98,74,44,30.12,30.06,8,4,16,0.00
2012-5-23,69.1,60.2,54.1,50.2,44.1,38.8,83,58,34,30.06,29.88,6,3,14,0.00
2012-5-24,68.2,58.9,52.0,44.4,42.1,39.2,70,55,39,29.94,29.71,7,3,17,0.00
2012-5-25,66.2,56.7,50.2,47.3,42.6,37.9,81,61,37,29.82,29.71,6,3,14,0.00
2012-5-26,66.4,56.3,50.7,49.1,46.3,43.2,89,71,43,30.06,29.82,7,3,15,0.00
2012-5-27,63.1,56.0,52.9,51.4,47.2,43.0,90,73,49,30.12,30.06,7,3,14,0.00
2012-5-28,65.8,46.5,52.7,99.9,29.2,-99.9,97,72,44,30.36,30.00,6,3,15,0.00
2012-5-29,-200.0,0.0,200.0,99.9,-10.3,-99.9,85,67,41,30.30,30.30,7,3,15,0.00
2012-5-30,73.2,53.8,51.8,50.0,28.2,-99.9,90,64,34,30.65,23.92,7,2,14,0.00
2012-5-31,78.6,62.8,52.5,52.2,46.8,40.5,86,60,26,30.06,29.85,5,2,12,0.00
2012-6-1,78.1,62.7,55.0,53.6,49.8,44.8,89,66,32,29.85,29.76,6,2,15,0.00
2012-6-2,65.7,57.4,52.3,55.6,52.3,49.6,98,84,57,29.97,29.82,9,5,17,0.00
2012-6-3,67.5,58.3,51.4,52.3,49.2,45.1,98,75,45,29.97,29.88,7,3,15,0.00
2012-6-4,61.9,58.1,53.4,58.1,52.2,46.8,97,81,62,30.12,29.91,5,2,13,0.08
2012-6-5,67.6,58.6,51.4,50.4,42.5,35.6,90,59,34,30.21,30.12,6,3,15,0.00
2012-6-6,69.8,59.6,51.3,45.9,41.7,37.8,73,54,33,30.12,29.97,6,2,14,0.00
2012-6-7,68.2,59.2,52.0,54.5,47.9,43.0,91,68,44,30.03,29.97,9,4,17,0.00
2012-6-8,69.4,59.9,52.3,50.7,43.0,37.4,86,57,33,30.00,29.91,6,3,15,0.00
2012-6-9,78.1,63.4,51.3,42.4,38.8,30.9,66,43,20,30.00,29.88,5,2,11,0.00
2012-6-10,88.0,70.1,56.5,43.0,37.7,30.7,52,33,13,29.91,29.85,6,2,14,0.00
2012-6-11,81.3,67.1,57.4,46.6,43.8,40.1,65,45,25,29.97,29.88,6,2,11,0.00
2012-6-13,69.3,61.8,52.5,52.0,46.8,44.1,96,60,42,29.88,29.76,7,3,14,0.00
2012-6-14,68.7,62.6,54.0,49.1,44.2,42.6,83,52,39,29.82,29.74,6,3,13,0.00
2012-6-15,81.3,64.0,52.2,51.6,44.3,39.7,79,52,25,29.82,29.76,4,1,10,0.00
2012-6-16,90.5,69.8,56.3,55.4,46.9,43.3,77,48,22,29.85,29.76,5,2,11,0.00
2012-6-17,71.2,61.5,56.1,54.7,51.4,45.9,93,71,43,29.91,29.79,7,4,15,0.00
2012-6-18,56.3,55.6,55.0,54.0,49.7,47.3,93,81,73,29.88,29.85,3,2,9,0.00
2012-6-19,72.9,62.1,53.2,55.2,46.5,43.2,84,60,36,29.94,29.82,5,2,11,0.00
2012-6-20,83.5,65.3,55.4,56.1,47.4,42.6,81,56,26,29.85,29.79,4,2,11,0.00
2012-6-21,63.7,56.6,52.9,50.5,48.7,45.9,90,75,54,29.97,29.82,5,3,15,0.00
2012-6-22,67.5,59.1,53.6,55.9,49.1,44.6,92,71,45,29.97,29.88,4,2,12,0.00
2012-6-23,69.3,60.9,53.2,53.1,46.4,39.0,88,62,35,29.94,29.85,6,3,14,0.00
2012-6-24,68.9,60.9,53.8,50.5,45.5,38.3,84,60,34,30.06,29.94,7,2,14,0.00
2012-6-25,71.2,62.2,55.4,54.5,49.1,41.4,85,65,35,30.09,30.03,5,2,13,0.00
2012-6-26,73.2,63.7,55.2,55.0,46.8,39.4,85,57,33,30.06,29.88,6,2,14,0.00
2012-6-27,76.6,62.9,55.0,55.6,48.0,43.9,83,61,32,29.97,29.85,8,3,14,0.00
2012-6-28,70.0,60.7,56.1,56.3,52.0,48.4,98,75,47,30.09,29.94,6,3,13,0.00
2012-6-29,69.3,62.0,56.7,60.8,55.5,51.6,98,81,54,30.12,30.03,5,3,12,0.00
2012-6-30,72.7,64.0,58.3,62.2,58.1,54.0,98,83,52,30.03,29.94,6,2,15,0.00
2012-7-1,66.9,61.9,58.5,61.0,57.5,55.0,98,86,68,29.97,29.88,5,2,12,0.00
2012-7-2,68.7,60.7,55.9,55.2,51.7,47.7,88,73,47,29.91,29.85,7,2,18,0.00
2012-7-3,72.9,61.6,54.0,51.8,48.2,44.2,87,64,36,29.91,29.82,4,2,13,0.00
2012-7-4,75.0,61.7,55.4,53.4,49.2,46.0,86,66,36,29.91,29.82,5,2,12,0.00
2012-7-5,67.5,59.6,54.7,51.3,49.1,45.9,84,70,46,30.00,29.91,4,2,13,0.00
2012-7-6,70.7,60.7,55.0,52.7,49.7,46.2,91,69,42,30.03,29.97,4,1,10,0.00
2012-7-7,77.9,62.0,54.0,55.0,49.5,44.1,92,68,32,30.00,29.91,6,2,13,0.00
2012-7-8,63.0,57.7,54.0,54.0,52.0,50.5,93,82,66,30.06,30.00,5,2,15,0.00
2012-7-9,65.8,58.2,54.3,54.1,51.7,47.8,96,81,53,30.06,29.97,6,3,13,0.00
2012-7-10,74.8,60.7,53.4,52.3,49.5,44.6,93,70,35,29.97,29.82,6,2,15,0.00
2012-7-11,77.2,62.3,54.0,55.0,48.7,45.0,91,65,33,29.88,29.79,6,2,13,0.00
2012-7-12,73.2,58.8,53.8,53.4,49.8,45.3,91,75,37,29.88,29.82,4,1,15,0.00
2012-7-13,59.5,56.4,53.6,54.3,51.2,49.5,93,83,70,29.94,29.85,6,3,17,0.00
2012-7-14,69.3,58.6,54.1,53.8,51.3,47.5,93,79,46,29.97,29.88,5,2,11,0.00
2012-7-15,68.5,60.2,54.9,55.2,52.3,47.5,92,77,48,29.94,29.85,5,2,13,0.00
2012-7-16,65.5,59.2,55.6,56.1,52.5,45.9,95,80,50,29.94,29.82,5,3,14,0.00
2012-7-17,69.4,61.4,57.0,56.3,52.1,45.0,94,74,42,30.00,29.91,4,2,12,0.00
2012-7-18,70.7,62.1,57.9,54.0,50.0,43.3,86,67,39,30.03,29.97,5,2,11,0.00
2012-7-19,73.2,63.3,56.1,57.0,53.2,47.1,96,72,42,30.06,29.97,5,2,13,0.00
2012-7-20,73.9,63.9,58.1,55.9,52.7,49.1,89,69,42,30.09,29.97,7,2,15,0.00
2012-7-21,81.3,66.1,56.8,61.0,50.9,46.2,87,62,31,30.00,29.88,5,2,12,0.00
2012-7-22,75.4,63.5,56.3,54.1,50.5,46.4,90,66,36,29.94,29.85,4,2,9,0.00
2012-7-23,72.7,60.7,56.7,55.2,51.1,47.7,85,73,42,29.94,29.88,3,1,10,0.00
2012-7-24,71.2,62.7,57.6,54.1,51.3,46.9,85,68,42,29.97,29.94,5,2,13,0.00
2012-7-25,69.3,61.5,57.0,54.0,52.0,48.0,86,72,47,30.00,29.94,5,2,13,0.00
2012-7-26,67.8,59.9,56.5,53.8,51.6,47.7,89,76,49,30.00,29.94,4,2,13,0.00
2012-7-27,67.3,59.6,55.0,54.7,52.4,48.0,93,79,51,30.03,29.97,4,2,15,0.00
2012-7-28,69.1,60.0,55.8,55.2,53.0,49.8,94,79,51,30.06,30.00,7,2,15,0.00
2012-7-29,70.0,60.0,55.0,54.7,52.5,47.7,95,78,45,30.06,29.97,5,2,11,0.00
2012-7-30,76.1,63.7,56.1,56.7,51.4,47.1,90,67,36,30.00,29.88,5,1,11,0.00
2012-7-31,72.3,62.1,56.3,53.1,50.2,46.4,85,67,40,30.00,29.91,5,2,10,0.00
2012-8-1,73.8,61.3,55.6,53.6,50.9,46.4,91,71,39,30.06,29.97,4,2,10,0.00
2012-8-2,73.4,60.7,55.2,54.1,51.3,46.8,92,74,39,30.00,29.88,5,2,11,0.00
2012-8-3,67.5,58.9,55.4,54.0,51.8,48.0,94,79,50,29.91,29.82,4,2,11,0.00
2012-8-4,63.5,58.5,54.3,57.9,54.5,52.2,95,87,71,29.97,29.85,4,2,11,0.00
2012-8-5,69.6,61.9,58.5,60.1,55.0,49.5,97,80,49,30.09,29.97,5,2,12,0.00
2012-8-6,71.8,63.0,57.7,54.1,51.7,48.0,83,68,44,30.12,30.03,4,2,11,0.00
2012-8-7,70.7,61.7,56.7,54.9,51.3,47.1,89,70,44,30.06,29.97,6,2,17,0.00
2012-8-8,76.5,63.3,54.5,53.6,49.6,45.3,87,64,34,30.00,29.91,5,1,13,0.00
2012-8-9,73.6,62.3,54.9,54.0,50.2,45.7,89,67,37,29.94,29.82,5,2,11,0.00
2012-8-10,73.4,60.8,55.0,53.1,50.1,45.5,91,70,37,29.85,29.76,7,2,15,0.00
2012-8-11,73.6,60.7,53.8,54.3,50.5,45.1,93,72,37,29.82,29.74,5,2,13,0.00
2012-8-12,61.5,55.5,54.0,53.2,52.4,50.7,93,90,68,29.85,29.79,3,1,8,0.00
2012-8-13,64.4,59.0,56.3,52.2,51.0,48.7,86,75,57,29.79,29.76,4,2,8,0.00
2012-8-14,68.7,60.4,55.2,55.9,53.9,51.3,94,80,54,29.82,29.76,6,2,13,0.00
2012-8-15,67.5,61.0,57.7,56.7,53.2,48.9,95,77,52,29.88,29.79,5,2,11,0.00
2012-8-16,69.1,62.0,58.5,55.9,53.7,50.5,90,76,52,29.97,29.88,4,2,10,0.00
2012-8-20,65.7,57.7,54.0,54.0,52.0,47.5,96,83,52,29.94,29.85,6,2,13,0.00
2012-8-21,66.4,58.6,54.5,54.5,52.9,48.0,97,83,52,29.94,29.85,8,3,15,0.00
2012-8-22,64.2,58.4,54.5,56.1,53.7,51.1,96,85,64,29.94,29.88,5,2,12,0.00
2012-8-23,67.5,59.7,55.4,56.7,53.5,50.5,96,81,55,29.94,29.85,5,2,12,0.00
2012-8-24,71.1,60.2,54.7,55.6,51.8,47.1,93,76,44,29.91,29.82,5,2,15,0.00
2012-8-25,62.8,57.9,54.7,54.0,51.8,48.2,94,81,59,29.88,29.82,5,2,13,0.00
2012-8-26,68.7,61.0,57.0,54.5,49.7,44.1,87,68,43,30.00,29.85,6,3,13,0.00
2012-8-27,75.0,63.8,57.6,57.2,54.6,51.8,92,74,45,30.06,29.94,6,2,14,0.00
2012-8-28,74.3,64.1,56.8,55.4,49.7,44.8,84,62,36,30.03,29.91,6,2,15,0.00
2012-8-29,80.2,65.0,55.0,55.2,48.8,42.4,87,60,30,29.94,29.76,5,1,11,0.00
2012-8-30,65.8,59.4,55.8,54.1,51.8,49.3,90,77,56,29.85,29.76,5,2,14,0.00
2012-8-31,63.5,58.8,56.5,55.2,52.2,48.2,93,80,58,29.94,29.85,5,3,14,0.00
2012-9-1,67.3,59.1,55.0,53.1,50.6,46.2,90,75,47,30.03,29.94,5,2,10,0.00
2012-9-2,72.0,60.5,53.2,58.6,51.3,47.3,97,75,43,30.00,29.88,4,1,10,0.00
2012-9-3,73.4,60.4,53.6,54.7,50.7,47.3,92,73,40,29.97,29.88,5,2,9,0.00
2012-9-4,66.7,58.1,53.1,55.2,51.9,46.4,95,82,48,30.03,29.94,4,2,12,0.00
2012-9-5,65.8,58.7,55.0,54.5,52.8,48.7,95,82,55,30.00,29.91,4,2,11,0.00
2012-9-6,66.7,59.8,55.9,54.0,49.7,45.5,88,71,47,30.00,29.94,5,2,13,0.00
2012-9-7,68.9,60.2,54.1,52.0,48.7,44.8,84,68,43,30.09,30.00,4,2,10,0.00
2012-9-8,65.7,59.3,56.3,52.5,50.1,46.9,86,72,52,30.06,29.94,5,3,13,0.00
2012-9-9,69.4,60.3,54.7,53.2,50.6,47.1,88,72,48,30.00,29.88,7,3,14,0.00
2012-9-10,71.4,61.7,55.9,55.2,51.3,45.7,90,71,43,29.94,29.79,5,1,10,0.00
2012-9-11,69.8,60.5,55.4,54.5,51.8,48.6,91,75,47,29.94,29.82,4,2,13,0.00
2012-9-12,68.5,59.5,56.1,55.2,53.8,51.6,95,83,56,30.06,29.94,4,1,9,0.00
2012-9-13,57.0,56.6,56.3,54.5,54.2,54.0,92,92,91,30.09,30.06,3,2,8,0.00
2012-9-14,65.1,58.9,55.6,54.7,52.8,49.8,94,81,58,30.12,30.03,5,2,11,0.00
2012-9-15,65.5,57.7,53.4,53.2,50.7,47.8,94,79,54,30.12,30.00,6,2,15,0.00
2012-9-16,65.1,57.1,52.7,52.9,50.4,46.2,96,80,51,30.06,29.97,4,2,11,0.00
2012-9-17,65.5,58.7,54.9,52.2,49.5,45.3,88,73,49,30.09,30.00,4,2,11,0.00
2012-9-18,66.7,58.4,53.8,53.4,48.9,45.3,86,72,46,30.12,30.03,4,2,11,0.00
2012-9-19,67.8,59.3,55.6,52.7,50.2,46.2,85,73,46,30.12,30.03,4,3,13,0.00
2012-9-20,65.3,58.7,53.4,51.8,48.9,45.3,88,71,50,30.09,29.97,6,2,15,0.00
2012-9-21,71.2,59.7,52.9,53.4,48.0,43.2,89,68,37,30.00,29.88,5,1,10,0.00
2012-9-22,72.9,60.9,53.6,53.1,48.3,42.3,85,66,36,29.94,29.88,6,1,11,0.00
2012-9-23,68.5,57.8,51.3,58.6,51.5,46.9,97,81,48,29.97,29.88,5,1,12,0.00
2012-9-24,67.5,59.0,55.2,55.6,52.7,50.0,94,81,54,29.97,29.88,5,2,11,0.00
2012-9-25,66.2,57.5,53.2,55.6,52.7,50.7,97,85,59,29.94,29.85,6,2,14,0.00
2012-9-26,65.1,57.4,53.8,52.3,51.0,48.0,92,80,55,29.91,29.85,4,1,10,0.00
2012-9-27,69.4,57.9,53.2,54.5,51.9,48.6,96,82,48,29.94,29.82,4,1,10,0.00
2012-9-28,61.7,56.6,52.3,55.2,53.5,50.9,97,89,73,29.97,29.88,4,1,11,0.00
2012-9-29,67.3,58.2,54.3,57.6,52.9,49.6,96,84,54,30.06,29.97,6,2,13,0.00
2012-9-30,81.1,64.0,52.0,61.5,50.0,35.8,95,67,27,30.06,29.94,5,1,10,0.00
2012-10-1,87.4,70.0,58.6,55.6,44.6,23.9,74,46,11,30.00,29.88,4,1,10,0.00
2012-10-2,90.5,73.0,62.2,48.6,42.4,34.3,53,36,18,29.88,29.76,4,1,8,0.00
2012-10-3,75.7,65.0,59.9,57.2,53.7,45.3,87,68,41,30.00,29.79,6,2,14,0.00
2012-10-4,67.8,61.8,59.2,56.3,53.4,49.8,88,75,54,30.15,30.00,4,2,10,0.00
2012-10-5,69.6,63.0,59.4,57.0,54.2,50.5,91,74,51,30.15,30.06,5,2,10,0.00
2012-10-6,70.3,61.8,56.8,57.4,50.6,42.1,94,71,37,30.06,29.97,5,2,13,0.00
2012-10-7,65.8,59.7,55.8,55.0,52.9,50.4,91,79,58,30.03,29.94,6,2,14,0.00
2012-10-8,68.0,60.7,55.4,56.8,53.4,49.5,89,78,53,30.06,30.00,5,1,11,0.00
2012-10-9,69.4,62.0,58.5,57.2,53.0,48.0,86,74,47,30.03,29.94,4,1,11,0.00
2012-10-10,66.7,59.8,56.8,54.9,52.4,48.9,90,77,53,29.97,29.88,6,2,15,0.00
2012-10-11,59.2,57.5,56.3,54.3,51.9,49.1,92,82,70,29.97,29.88,3,1,10,0.00
2012-10-12,63.3,58.7,55.6,53.6,50.3,45.0,92,75,52,30.24,29.97,3,1,8,0.00
2012-10-13,72.9,60.9,55.0,57.0,51.8,42.4,91,74,34,30.33,30.18,5,1,10,0.00
2012-10-14,70.2,61.5,57.7,58.6,57.0,53.6,97,86,57,30.24,30.06,4,1,13,0.00
2012-10-15,74.3,63.2,57.4,64.8,57.3,52.0,97,83,49,30.09,29.97,5,1,11,0.00
2012-10-16,71.2,64.8,61.2,63.1,58.2,54.1,93,80,66,30.00,29.88,8,2,14,0.00
2012-10-17,79.2,66.2,57.7,61.9,45.7,30.0,90,55,23,29.91,29.82,2,0,8,0.00
2012-10-18,83.5,69.2,59.9,62.4,47.2,36.5,84,49,21,30.03,29.85,4,1,13,0.00
2012-10-19,67.6,63.6,57.9,62.6,60.0,54.9,96,88,75,30.06,29.91,3,2,10,0.00
2012-10-20,66.9,59.3,55.4,57.2,52.7,46.6,96,80,54,29.94,29.79,6,2,15,0.00
2012-10-21,61.9,56.4,52.2,52.5,43.9,37.8,87,64,43,29.94,29.85,6,2,13,0.00
2012-10-22,61.9,56.8,53.2,55.8,51.6,45.5,96,84,55,29.94,29.74,4,2,10,0.76
2012-10-23,63.5,56.3,52.3,54.5,47.5,36.3,96,75,39,30.06,29.94,4,1,10,0.24
2012-10-24,63.1,58.2,53.6,57.2,49.2,42.8,94,73,51,30.21,30.03,3,1,9,0.20
2012-10-25,63.3,58.4,55.4,56.8,50.7,45.1,91,76,52,30.27,30.18,4,2,10,0.00
2012-10-26,70.3,60.2,52.5,51.3,44.4,29.1,81,59,23,30.24,30.09,4,0,8,0.00
2012-10-27,76.8,63.8,56.8,60.8,53.0,48.7,87,70,38,30.09,29.94,4,0,12,0.00
2012-10-28,75.6,61.9,57.2,60.1,55.2,50.9,92,80,44,30.03,29.94,5,1,11,0.00
2012-10-29,68.4,59.6,56.5,59.4,55.2,52.5,95,86,62,30.12,30.03,4,1,9,0.00
2012-10-30,67.6,58.8,54.7,60.8,56.0,53.2,97,91,65,30.09,29.97,3,0,9,0.00
2012-10-31,65.3,61.3,58.5,58.8,56.1,50.7,96,84,60,30.03,29.97,3,0,6,0.08
2012-11-1,64.8,60.3,55.8,61.2,57.2,51.3,97,90,74,30.06,30.00,4,1,10,0.24
2012-11-2,66.0,57.6,51.8,52.7,48.5,41.9,88,73,46,30.09,30.03,3,1,8,0.00
2012-11-3,71.1,61.3,54.9,58.1,50.4,46.8,88,69,45,30.15,30.06,3,1,9,0.00
2012-11-4,74.5,64.5,57.9,59.4,52.2,47.8,88,66,41,30.21,30.12,2,0,8,0.00
2012-11-5,76.1,66.6,58.8,58.5,53.0,49.1,85,64,39,30.15,30.03,3,1,8,0.00
2012-11-6,74.7,65.7,59.4,57.9,51.6,43.3,82,62,36,30.09,30.00,3,1,8,0.00
2012-11-7,60.3,57.7,55.9,56.3,54.1,49.3,97,88,78,30.06,29.94,5,2,12,0.00
2012-11-8,61.9,54.6,49.3,53.6,42.8,35.6,93,65,45,29.97,29.88,5,2,13,0.16
2012-11-9,56.5,50.9,46.4,44.8,39.6,30.9,85,67,39,30.00,29.91,5,1,11,0.04
2012-11-10,59.4,52.2,48.2,41.2,38.0,34.3,74,59,41,30.24,30.00,4,1,10,0.00
2012-11-11,60.3,52.4,46.9,45.0,38.4,31.6,84,60,38,30.39,30.24,3,0,6,0.00
2012-11-12,60.6,54.0,48.4,42.3,37.1,30.9,76,55,35,30.39,30.27,3,1,9,0.00
2012-11-13,64.9,57.3,51.3,43.2,37.8,32.9,67,50,33,30.27,30.09,4,1,9,0.00
2012-11-14,66.9,59.3,52.9,46.4,41.3,37.8,68,52,39,30.12,30.00,4,1,10,0.00
2012-11-15,65.7,59.4,53.1,52.5,44.6,37.2,82,59,35,30.03,29.97,3,0,8,0.00
2012-11-16,63.1,58.7,56.3,57.7,53.1,44.8,95,82,61,30.00,29.85,1,0,6,0.40
2012-11-17,61.7,59.4,55.0,60.1,57.2,54.0,98,93,79,30.00,29.79,4,2,10,0.76
2012-11-18,61.7,56.9,51.4,53.8,45.9,36.9,95,70,41,30.18,30.00,3,0,7,0.00
2012-11-19,66.2,59.7,54.5,50.0,45.3,37.6,74,60,40,30.24,30.15,3,0,7,0.00
2012-11-20,64.4,61.2,58.5,59.4,55.9,49.3,96,83,69,30.15,30.03,3,1,10,0.59
2012-11-21,62.6,58.9,53.1,59.9,53.2,44.8,98,82,60,30.21,30.03,4,1,10,0.40
2012-11-22,63.5,55.5,50.2,50.0,46.0,41.4,87,72,45,30.27,30.18,3,0,8,0.00
2012-11-23,63.9,56.7,51.4,51.6,47.4,41.5,90,72,45,30.27,30.18,4,1,9,0.00
2012-11-24,64.0,57.5,53.1,53.2,48.3,38.7,92,73,39,30.18,30.03,3,1,8,0.00
2012-11-25,61.7,56.3,53.8,55.9,52.8,50.4,97,89,69,30.03,29.94,2,0,6,0.00
2012-11-26,60.3,55.2,53.1,55.4,51.9,49.8,98,89,72,30.09,29.97,3,0,9,0.00
2012-11-27,62.8,57.9,53.8,54.1,49.2,44.2,91,74,51,30.12,30.00,1,0,6,0.00
2012-11-28,62.4,58.8,56.7,59.7,52.8,47.8,97,81,71,30.06,29.82,5,1,11,0.24
2012-11-29,63.0,60.2,57.2,59.7,54.9,50.2,93,83,69,30.06,29.85,5,2,12,0.16
2012-11-30,61.7,60.3,58.6,60.8,59.0,56.7,98,95,88,30.00,29.79,5,3,17,1.40
2012-12-1,64.0,60.3,58.3,61.5,58.2,55.0,98,93,81,30.03,29.88,4,1,10,0.84
2012-12-2,63.5,58.3,52.7,61.9,53.7,44.6,98,85,61,30.12,29.76,6,2,16,1.19
2012-12-3,58.8,54.5,50.2,54.0,48.3,45.1,93,80,61,30.21,30.09,0,0,5,0.00
2012-12-4,62.2,58.4,54.3,57.2,50.8,43.0,90,77,53,30.24,30.15,0,0,4,0.00
2012-12-5,62.6,60.5,58.8,61.9,59.4,57.6,98,96,90,30.18,30.09,2,0,8,0.68
2012-12-6,60.4,56.7,52.9,57.9,49.9,43.7,97,79,57,30.15,30.09,2,0,8,0.00
2012-12-7,60.1,53.9,49.5,53.6,47.5,43.7,93,80,56,30.15,30.06,0,0,6,0.00
2012-12-8,58.3,53.1,49.5,49.1,44.6,33.1,93,75,39,30.12,30.06,3,0,9,0.00
2012-12-9,63.7,55.6,49.1,49.3,42.4,34.2,89,64,34,30.18,30.09,2,0,8,0.00
2012-12-10,63.9,56.9,51.6,46.0,42.8,40.1,72,60,42,30.24,30.12,2,0,7,0.00
2012-12-11,56.8,53.6,50.2,53.8,47.4,42.4,96,80,65,30.12,29.88,2,0,13,0.00
2012-12-12,54.7,51.6,48.0,52.3,41.4,34.0,95,69,47,29.91,29.85,4,1,10,0.08
2012-12-13,53.1,48.6,45.9,41.9,36.7,30.0,85,64,44,29.94,29.85,4,1,10,0.00
2012-12-14,52.9,49.0,45.3,44.8,39.8,34.9,81,71,52,30.03,29.82,2,0,6,0.00
2012-12-15,51.6,48.4,46.4,47.7,44.4,39.9,94,86,76,30.09,30.00,3,0,10,0.08
2012-12-16,56.7,53.0,49.3,55.0,47.7,42.4,94,82,71,30.12,30.03,2,0,8,0.04
2012-12-17,58.3,55.1,48.9,57.0,50.2,39.2,98,84,66,30.09,29.97,3,1,10,0.24
2012-12-18,53.1,48.1,44.6,39.2,27.7,22.5,69,46,36,30.21,30.00,5,2,11,0.00
2012-12-19,53.1,45.9,40.6,33.6,24.9,18.3,61,44,29,30.33,30.21,3,0,6,0.00
2012-12-20,58.5,50.8,42.6,40.1,33.0,29.3,62,51,38,30.24,30.00,3,1,10,0.00
2012-12-21,55.9,54.1,51.8,54.0,48.2,37.9,94,81,54,30.00,29.85,3,2,10,0.16
2012-12-22,56.8,53.5,49.8,53.4,49.3,44.8,98,86,65,30.09,29.85,4,2,11,0.80
2012-12-23,57.6,53.6,49.6,57.0,52.4,48.2,98,96,91,30.09,29.85,5,2,16,0.96
2012-12-24,54.0,50.3,47.7,48.2,43.6,37.4,95,79,55,30.21,30.03,2,0,6,0.00
2012-12-25,52.9,49.1,46.9,52.3,45.0,40.5,98,86,76,30.15,29.79,2,0,8,0.92
2012-12-26,54.0,50.3,47.8,50.5,44.9,39.2,96,82,68,30.12,29.88,4,1,13,0.20
2012-12-27,54.0,49.9,46.8,41.5,38.1,32.7,77,65,45,30.18,30.09,2,0,6,0.00
2012-12-28,51.6,48.4,45.1,43.2,39.5,34.2,87,72,54,30.18,30.03,2,0,6,0.12
2012-12-29,52.7,48.1,44.2,44.1,40.2,36.1,90,75,56,30.09,30.03,3,1,10,0.08
2012-12-30,52.9,48.2,44.2,44.6,39.0,29.8,89,72,42,30.18,30.06,3,0,8,0.00
2012-12-31,52.2,47.5,41.9,37.4,32.1,25.7,72,56,36,30.30,30.18,2,0,6,0.00
2013-1-1,53.4,48.4,44.6,41.9,32.6,25.3,73,56,37,30.27,30.21,5,2,12,0.00